createdAt,value
2022-10-18T00:02:31.205Z,2.37
2022-10-18T00:05:18.734Z,2.23
2022-10-18T00:08:06.635Z,2.40
2022-10-18T00:10:54.349Z,2.77
2022-10-18T00:13:42.145Z,2.70
2022-10-18T00:16:29.426Z,2.70
2022-10-18T00:19:17.444Z,2.20
2022-10-18T00:22:05.046Z,2.37
2022-10-18T00:24:52.544Z,2.57
2022-10-18T00:27:40.209Z,2.40
2022-10-18T00:30:27.889Z,2.70
2022-10-18T00:33:15.687Z,2.17
2022-10-18T00:36:02.972Z,2.40
2022-10-18T00:38:50.986Z,2.23
2022-10-18T00:41:38.575Z,2.90
2022-10-18T00:44:26.335Z,2.63
2022-10-18T00:47:14.930Z,2.23
2022-10-18T00:50:04.197Z,3.13
2022-10-18T00:52:58.211Z,2.70
2022-10-18T00:55:45.941Z,2.60
2022-10-18T00:58:33.378Z,2.57
2022-10-18T01:01:24.412Z,2.60
2022-10-18T01:04:15.849Z,2.73
2022-10-18T01:07:15.408Z,2.27
2022-10-18T01:10:08.647Z,2.20
2022-10-18T01:13:08.451Z,2.60
2022-10-18T01:16:01.496Z,2.53
2022-10-18T01:19:00.985Z,2.53
2022-10-18T01:21:51.718Z,3.13
2022-10-18T01:24:39.507Z,2.53
2022-10-18T01:27:26.848Z,2.43
2022-10-18T01:30:23.993Z,2.30
2022-10-18T01:33:18.134Z,2.37
2022-10-18T01:36:14.840Z,2.40
2022-10-18T01:39:03.540Z,2.50
2022-10-18T01:41:52.577Z,2.20
2022-10-18T01:44:41.134Z,2.23
2022-10-18T01:47:28.907Z,2.77
2022-10-18T01:50:17.056Z,2.17
2022-10-18T01:53:04.309Z,2.60
2022-10-18T01:55:58.880Z,2.57
2022-10-18T01:58:55.749Z,2.57
2022-10-18T02:01:55.666Z,2.00
2022-10-18T02:04:47.788Z,2.23
2022-10-18T02:07:41.654Z,2.40
2022-10-18T02:10:32.331Z,2.33
2022-10-18T02:13:21.244Z,2.40
2022-10-18T02:16:11.551Z,2.00
2022-10-18T02:19:01.218Z,2.70
2022-10-18T02:21:49.549Z,1.90
2022-10-18T02:24:39.372Z,2.20
2022-10-18T02:27:27.107Z,2.70
2022-10-18T02:30:15.693Z,2.50
2022-10-18T02:33:10.166Z,2.23
2022-10-18T02:36:00.340Z,2.40
2022-10-18T02:38:48.541Z,2.47
2022-10-18T02:41:35.804Z,2.10
2022-10-18T02:44:23.031Z,2.67
2022-10-18T02:47:11.660Z,2.40
2022-10-18T02:49:59.409Z,2.23
2022-10-18T02:52:47.201Z,2.27
2022-10-18T02:55:34.597Z,2.37
2022-10-18T02:58:22.325Z,2.33
2022-10-18T03:01:09.856Z,2.33
2022-10-18T03:03:58.358Z,1.80
2022-10-18T03:06:46.174Z,2.80
2022-10-18T03:09:33.452Z,2.20
2022-10-18T03:12:21.169Z,2.43
2022-10-18T03:15:08.656Z,2.30
2022-10-18T03:17:56.010Z,2.57
2022-10-18T03:20:43.334Z,2.43
2022-10-18T03:23:31.010Z,2.33
2022-10-18T03:26:18.291Z,2.47
2022-10-18T03:29:06.115Z,2.40
2022-10-18T03:31:54.040Z,2.10
2022-10-18T03:34:41.696Z,2.57
2022-10-18T03:37:29.014Z,2.13
2022-10-18T03:40:16.788Z,2.50
2022-10-18T03:43:04.137Z,2.20
2022-10-18T03:45:51.881Z,2.60
2022-10-18T03:48:39.770Z,2.60
2022-10-18T03:51:27.518Z,2.07
2022-10-18T03:54:15.215Z,2.50
2022-10-18T03:57:02.939Z,2.07
2022-10-18T03:59:50.667Z,2.37
2022-10-18T04:02:38.021Z,2.60
2022-10-18T04:05:28.389Z,2.30
2022-10-18T04:08:16.507Z,2.27
2022-10-18T04:11:11.194Z,2.50
2022-10-18T04:13:58.953Z,2.10
2022-10-18T04:16:46.238Z,2.13
2022-10-18T04:19:33.987Z,2.13
2022-10-18T04:22:21.723Z,2.40
2022-10-18T04:25:09.245Z,2.20
2022-10-18T04:27:56.984Z,2.10
2022-10-18T04:30:44.310Z,2.37
2022-10-18T04:33:31.649Z,2.03
2022-10-18T04:36:18.955Z,2.20
2022-10-18T04:39:06.594Z,2.60
2022-10-18T04:41:53.779Z,2.10
2022-10-18T04:44:41.312Z,1.83
2022-10-18T04:47:28.940Z,2.60
2022-10-18T04:50:16.996Z,1.97
2022-10-18T04:53:04.257Z,2.63
2022-10-18T04:55:51.936Z,2.70
2022-10-18T04:58:39.126Z,2.20
2022-10-18T05:01:26.976Z,2.37
2022-10-18T05:04:14.349Z,2.43
2022-10-18T05:07:03.263Z,2.60
2022-10-18T05:09:50.677Z,2.67
2022-10-18T05:12:38.083Z,2.37
2022-10-18T05:15:25.717Z,2.70
2022-10-18T05:18:13.114Z,2.37
2022-10-18T05:21:00.985Z,3.47
2022-10-18T05:23:48.641Z,2.63
2022-10-18T05:26:36.351Z,2.53
2022-10-18T05:29:24.219Z,2.47
2022-10-18T05:32:11.567Z,2.23
2022-10-18T05:34:59.289Z,3.03
2022-10-18T05:37:47.123Z,2.60
2022-10-18T05:40:35.074Z,2.43
2022-10-18T05:43:23.083Z,2.70
2022-10-18T05:46:15.025Z,2.50
2022-10-18T05:49:03.121Z,2.53
2022-10-18T05:51:50.853Z,2.60
2022-10-18T05:54:38.130Z,2.43
2022-10-18T05:57:25.754Z,2.43
2022-10-18T06:00:13.328Z,2.70
2022-10-18T06:03:01.354Z,2.30
2022-10-18T06:05:48.643Z,2.73
2022-10-18T06:08:36.699Z,2.20
2022-10-18T06:11:24.504Z,2.20
2022-10-18T06:14:12.214Z,1.93
2022-10-18T06:16:59.514Z,2.90
2022-10-18T06:19:47.385Z,2.03
2022-10-18T06:22:34.781Z,2.33
2022-10-18T06:25:22.589Z,2.90
2022-10-18T06:28:11.542Z,2.57
2022-10-18T06:31:00.357Z,2.47
2022-10-18T06:33:47.721Z,2.33
2022-10-18T06:36:35.423Z,2.50
2022-10-18T06:39:22.840Z,2.22
2022-10-18T06:42:22.543Z,2.23
2022-10-18T06:45:10.441Z,2.00
2022-10-18T06:47:58.525Z,2.63
2022-10-18T06:50:57.378Z,2.00
2022-10-18T06:53:59.120Z,2.10
2022-10-18T06:56:56.462Z,1.97
2022-10-18T06:59:44.224Z,2.38
2022-10-18T07:02:32.151Z,2.70
2022-10-18T07:05:20.168Z,1.90
2022-10-18T07:08:07.602Z,2.05
2022-10-18T07:10:55.356Z,2.35
2022-10-18T07:13:43.185Z,2.05
2022-10-18T07:16:31.052Z,2.72
2022-10-18T07:19:18.354Z,2.60
2022-10-18T07:22:05.952Z,2.40
2022-10-18T07:24:53.346Z,2.22
2022-10-18T07:27:42.130Z,2.10
2022-10-18T07:30:29.388Z,2.22
2022-10-18T07:33:17.079Z,2.67
2022-10-18T07:36:08.643Z,2.10
2022-10-18T07:38:56.274Z,2.95
2022-10-18T07:41:43.515Z,2.35
2022-10-18T07:44:32.237Z,2.03
2022-10-18T07:47:19.691Z,1.83
2022-10-18T07:50:07.916Z,2.40
2022-10-18T07:52:55.628Z,2.30
2022-10-18T07:55:44.597Z,1.70
2022-10-18T07:58:45.585Z,2.50
2022-10-18T08:01:33.513Z,2.30
2022-10-18T08:04:20.892Z,1.92
2022-10-18T08:07:08.648Z,2.33
2022-10-18T08:09:56.471Z,2.10
2022-10-18T08:12:43.847Z,2.10
2022-10-18T08:15:31.743Z,1.90
2022-10-18T08:18:19.544Z,2.03
2022-10-18T08:21:11.502Z,2.20
2022-10-18T08:24:19.166Z,1.85
2022-10-18T08:27:09.566Z,2.20
2022-10-18T08:29:57.551Z,1.83
2022-10-18T08:32:48.216Z,2.10
2022-10-18T08:35:38.870Z,2.55
2022-10-18T08:38:26.259Z,2.20
2022-10-18T08:41:32.289Z,2.08
2022-10-18T08:44:20.022Z,2.03
2022-10-18T08:47:12.559Z,2.25
2022-10-18T08:50:05.095Z,2.08
2022-10-18T08:52:52.411Z,2.33
2022-10-18T08:55:49.289Z,2.20
2022-10-18T08:58:36.605Z,2.35
2022-10-18T09:01:44.700Z,2.55
2022-10-18T09:04:41.305Z,2.10
2022-10-18T09:07:38.640Z,2.13
2022-10-18T09:10:35.748Z,2.65
2022-10-18T09:13:38.356Z,2.65
2022-10-18T09:16:39.269Z,2.33
2022-10-18T09:19:27.053Z,2.30
2022-10-18T09:22:17.424Z,2.10
2022-10-18T09:25:09.397Z,2.30
2022-10-18T09:28:17.002Z,2.25
2022-10-18T09:31:08.936Z,2.22
2022-10-18T09:33:56.224Z,2.20
2022-10-18T09:36:45.781Z,2.25
2022-10-18T09:39:34.435Z,2.30
2022-10-18T09:42:27.323Z,2.15
2022-10-18T09:45:32.023Z,1.70
2022-10-18T09:48:22.787Z,2.00
2022-10-18T09:51:13.217Z,2.00
2022-10-18T09:54:06.912Z,1.83
2022-10-18T09:57:12.975Z,2.25
2022-10-18T10:00:01.616Z,2.40
2022-10-18T10:02:49.081Z,2.13
2022-10-18T10:05:36.977Z,2.20
2022-10-18T10:08:33.020Z,1.83
2022-10-18T10:11:41.065Z,2.10
2022-10-18T10:14:30.756Z,1.95
2022-10-18T10:17:29.765Z,1.95
2022-10-18T10:20:25.256Z,2.20
2022-10-18T10:23:15.661Z,2.08
2022-10-18T10:26:06.241Z,1.90
2022-10-18T10:28:54.191Z,2.38
2022-10-18T10:31:42.151Z,2.17
2022-10-18T10:34:31.123Z,2.70
2022-10-18T10:37:36.401Z,1.90
2022-10-18T10:40:27.838Z,2.25
2022-10-18T10:43:36.371Z,2.55
2022-10-18T10:46:34.071Z,2.20
2022-10-18T10:49:39.804Z,2.30
2022-10-18T10:52:29.752Z,2.35
2022-10-18T10:55:34.552Z,2.03
2022-10-18T10:58:23.350Z,2.20
2022-10-18T11:01:20.598Z,2.35
2022-10-18T11:04:28.996Z,2.20
2022-10-18T11:07:19.466Z,2.22
2022-10-18T11:10:13.015Z,2.20
2022-10-18T11:13:06.463Z,1.75
2022-10-18T11:15:55.823Z,2.42
2022-10-18T11:18:48.859Z,2.20
2022-10-18T11:21:45.704Z,2.10
2022-10-18T11:24:35.280Z,1.92
2022-10-18T11:27:42.715Z,2.00
2022-10-18T11:30:55.053Z,2.03
2022-10-18T11:34:09.265Z,2.00
2022-10-18T11:37:27.663Z,1.95
2022-10-18T11:40:20.092Z,1.80
2022-10-18T11:43:30.395Z,2.17
2022-10-18T11:46:45.351Z,2.08
2022-10-18T11:49:40.451Z,1.90
2022-10-18T11:52:37.028Z,1.77
2022-10-18T11:55:27.637Z,2.20
2022-10-18T11:58:38.323Z,1.95
2022-10-18T12:01:44.534Z,2.20
2022-10-18T12:04:41.815Z,1.52
2022-10-18T12:07:55.538Z,2.05
2022-10-18T12:11:04.104Z,2.40
2022-10-18T12:13:54.713Z,1.98
2022-10-18T12:16:51.584Z,2.00
2022-10-18T12:19:42.751Z,2.20
2022-10-18T12:22:37.945Z,2.45
2022-10-18T12:25:25.708Z,2.13
2022-10-18T12:28:30.102Z,2.17
2022-10-18T12:31:39.294Z,2.03
2022-10-18T12:34:40.100Z,1.88
2022-10-18T12:37:36.727Z,2.00
2022-10-18T12:40:26.660Z,2.03
2022-10-18T12:43:36.777Z,2.10
2022-10-18T12:46:24.346Z,1.92
2022-10-18T12:49:13.604Z,2.45
2022-10-18T12:52:02.987Z,2.15
2022-10-18T12:55:12.790Z,2.00
2022-10-18T12:58:03.520Z,1.77
2022-10-18T13:00:51.239Z,1.98
2022-10-18T13:03:51.042Z,2.00
2022-10-18T13:07:03.446Z,1.88
2022-10-18T13:10:09.509Z,1.90
2022-10-18T13:13:36.213Z,2.25
2022-10-18T13:16:27.701Z,2.00
2022-10-18T13:19:21.677Z,2.35
2022-10-18T13:22:27.703Z,1.50
2022-10-18T13:25:21.177Z,2.10
2022-10-18T13:28:21.434Z,1.70
2022-10-18T13:31:24.145Z,2.20
2022-10-18T13:34:40.626Z,2.50
2022-10-18T13:37:29.265Z,2.08
2022-10-18T13:40:24.605Z,2.00
2022-10-18T13:43:31.128Z,1.77
2022-10-18T13:46:19.373Z,1.92
2022-10-18T13:49:15.724Z,2.35
2022-10-18T13:52:09.720Z,2.13
2022-10-18T13:55:09.324Z,2.08
2022-10-18T13:58:09.985Z,1.77
2022-10-18T14:00:57.973Z,2.30
2022-10-18T14:03:58.546Z,2.40
2022-10-18T14:06:47.954Z,2.53
2022-10-18T14:09:44.165Z,2.10
2022-10-18T14:12:46.819Z,1.80
2022-10-18T14:15:37.398Z,1.95
2022-10-18T14:18:31.838Z,2.28
2022-10-18T14:21:31.419Z,2.05
2022-10-18T14:24:23.062Z,2.20
2022-10-18T14:27:18.497Z,2.20
2022-10-18T14:30:20.518Z,1.98
2022-10-18T14:33:24.584Z,3.00
2022-10-18T14:36:21.626Z,2.17
2022-10-18T14:39:20.765Z,2.10
2022-10-18T14:42:19.719Z,2.40
2022-10-18T14:45:19.288Z,2.22
2022-10-18T14:48:17.211Z,2.65
2022-10-18T14:51:09.548Z,2.30
2022-10-18T14:53:57.878Z,2.70
2022-10-18T14:56:45.723Z,2.63
2022-10-18T14:59:45.894Z,2.38
2022-10-18T15:02:35.940Z,2.20
2022-10-18T15:05:25.304Z,2.22
2022-10-18T15:08:13.474Z,2.47
2022-10-18T15:11:01.271Z,2.35
2022-10-18T15:13:50.906Z,2.90
2022-10-18T15:16:39.392Z,2.38
2022-10-18T15:19:35.201Z,2.60
2022-10-18T15:22:32.345Z,2.25
2022-10-18T15:25:29.338Z,2.17
2022-10-18T15:28:28.829Z,2.20
2022-10-18T15:31:23.071Z,2.20
2022-10-18T15:34:20.063Z,2.10
2022-10-18T15:37:18.287Z,2.20
2022-10-18T15:40:24.575Z,2.45
2022-10-18T15:43:24.611Z,2.55
2022-10-18T15:46:34.248Z,2.50
2022-10-18T15:49:44.782Z,2.55
2022-10-18T15:52:38.108Z,2.60
2022-10-18T15:55:33.036Z,2.40
2022-10-18T15:58:22.784Z,2.42
2022-10-18T16:01:16.429Z,2.40
2022-10-18T16:04:10.141Z,2.25
2022-10-18T16:06:58.277Z,2.55
2022-10-18T16:09:45.559Z,2.20
2022-10-18T16:12:33.410Z,2.30
2022-10-18T16:15:20.918Z,3.20
2022-10-18T16:18:10.447Z,2.50
2022-10-18T16:20:58.302Z,2.15
2022-10-18T16:23:46.204Z,2.70
2022-10-18T16:26:34.423Z,2.70
2022-10-18T16:29:25.794Z,2.63
2022-10-18T16:32:13.309Z,3.00
2022-10-18T16:35:00.746Z,3.10
2022-10-18T16:37:48.478Z,3.03
2022-10-18T16:40:38.934Z,3.40
2022-10-18T16:43:29.145Z,3.00
2022-10-18T16:46:17.714Z,3.90
2022-10-18T16:49:05.547Z,3.30
2022-10-18T16:51:54.021Z,3.72
2022-10-18T16:54:41.889Z,3.70
2022-10-18T16:57:29.643Z,4.00
2022-10-18T17:00:22.327Z,3.88
2022-10-18T17:03:12.483Z,3.97
2022-10-18T17:06:00.313Z,4.90
2022-10-18T17:08:56.507Z,4.40
2022-10-18T17:11:44.280Z,4.22
2022-10-18T17:14:33.706Z,4.28
2022-10-18T17:17:24.440Z,3.97
2022-10-18T17:20:35.768Z,4.60
2022-10-18T17:23:09.238Z,4.10
2022-10-18T17:26:06.879Z,3.83
2022-10-18T17:28:57.852Z,3.75
2022-10-18T17:31:45.223Z,4.05
2022-10-18T17:34:32.660Z,3.85
2022-10-18T17:37:20.593Z,3.50
2022-10-18T17:40:08.379Z,4.03
2022-10-18T17:42:56.190Z,3.33
2022-10-18T17:45:48.599Z,4.22
2022-10-18T17:48:36.495Z,3.35
2022-10-18T17:51:24.323Z,3.78
2022-10-18T17:54:11.898Z,4.40
2022-10-18T17:56:59.335Z,3.80
2022-10-18T17:59:47.998Z,3.70
2022-10-18T18:02:37.213Z,3.45
2022-10-18T18:05:30.871Z,5.03
2022-10-18T18:08:18.273Z,3.70
2022-10-18T18:11:06.169Z,3.70
2022-10-18T18:13:55.430Z,3.95
2022-10-18T18:16:44.769Z,3.78
2022-10-18T18:19:32.281Z,3.45
2022-10-18T18:22:20.183Z,4.47
2022-10-18T18:25:09.544Z,4.93
2022-10-18T18:27:57.416Z,4.63
2022-10-18T18:30:45.271Z,4.85
2022-10-18T18:33:36.197Z,4.93
2022-10-18T18:36:24.677Z,4.97
2022-10-18T18:39:18.666Z,6.05
2022-10-18T18:42:07.187Z,6.90
2022-10-18T18:44:54.783Z,7.57
2022-10-18T18:47:42.129Z,7.75
2022-10-18T18:50:31.851Z,6.80
2022-10-18T18:53:19.578Z,5.85
2022-10-18T18:56:08.206Z,4.90
2022-10-18T18:58:56.723Z,4.68
2022-10-18T19:01:44.263Z,4.80
2022-10-18T19:04:31.820Z,4.97
2022-10-18T19:07:19.071Z,5.43
2022-10-18T19:10:06.693Z,6.18
2022-10-18T19:12:54.458Z,6.82
2022-10-18T19:15:41.896Z,6.53
2022-10-18T19:18:29.452Z,4.82
2022-10-18T19:21:16.879Z,5.35
2022-10-18T19:24:04.326Z,5.28
2022-10-18T19:26:54.307Z,5.32
2022-10-18T19:29:42.413Z,4.90
2022-10-18T19:32:29.697Z,4.43
2022-10-18T19:35:17.144Z,4.53
2022-10-18T19:38:04.630Z,4.90
2022-10-18T19:40:53.851Z,4.88
2022-10-18T19:43:41.273Z,5.85
2022-10-18T19:46:28.520Z,6.47
2022-10-18T19:49:16.820Z,5.65
2022-10-18T19:52:04.075Z,4.93
2022-10-18T19:54:51.611Z,5.40
2022-10-18T19:57:38.892Z,5.25
2022-10-18T20:00:26.361Z,4.78
2022-10-18T20:03:13.764Z,4.97
2022-10-18T20:06:02.623Z,5.45
2022-10-18T20:08:50.146Z,5.45
2022-10-18T20:11:38.037Z,5.80
2022-10-18T20:14:25.282Z,5.28
2022-10-18T20:17:14.290Z,5.13
2022-10-18T20:20:01.670Z,5.15
2022-10-18T20:22:49.683Z,5.15
2022-10-18T20:25:37.093Z,5.28
2022-10-18T20:28:25.507Z,5.28
2022-10-18T20:31:17.818Z,4.75
2022-10-18T20:34:09.283Z,5.45
2022-10-18T20:36:56.691Z,5.43
2022-10-18T20:39:44.161Z,5.70
2022-10-18T20:42:31.350Z,5.88
2022-10-18T20:45:19.289Z,5.05
2022-10-18T20:48:07.162Z,5.95
2022-10-18T20:50:55.013Z,5.25
2022-10-18T20:53:42.709Z,5.85
2022-10-18T20:56:31.902Z,6.00
2022-10-18T20:59:19.282Z,6.00
2022-10-18T21:02:07.126Z,6.28
2022-10-18T21:04:54.502Z,6.93
2022-10-18T21:07:42.176Z,6.32
2022-10-18T21:10:29.578Z,6.15
2022-10-18T21:13:17.247Z,6.60
2022-10-18T21:16:05.784Z,5.30
2022-10-18T21:18:53.630Z,5.70
2022-10-18T21:21:42.624Z,5.07
2022-10-18T21:24:30.863Z,5.88
2022-10-18T21:27:18.673Z,5.40
2022-10-18T21:30:06.055Z,5.60
2022-10-18T21:32:53.916Z,5.65
2022-10-18T21:35:41.804Z,6.15
2022-10-18T21:38:29.673Z,7.50
2022-10-18T21:41:18.725Z,10.05
2022-10-18T21:44:08.399Z,10.13
2022-10-18T21:46:58.329Z,10.20
2022-10-18T21:49:45.539Z,10.90
2022-10-18T21:52:33.595Z,8.25
2022-10-18T21:55:21.581Z,7.35
2022-10-18T21:58:10.038Z,7.75
2022-10-18T22:00:57.453Z,7.20
2022-10-18T22:03:45.905Z,6.68
2022-10-18T22:09:27.685Z,6.00
2022-10-18T22:12:15.147Z,7.80
2022-10-18T22:15:03.093Z,6.68
2022-10-18T22:17:50.474Z,5.97
2022-10-18T22:20:38.111Z,5.50
2022-10-18T22:23:26.274Z,5.47
2022-10-18T22:26:15.557Z,5.40
2022-10-18T22:29:05.230Z,4.38
2022-10-18T22:31:54.390Z,7.38
2022-10-18T22:34:41.655Z,8.07
2022-10-18T22:37:29.580Z,6.18
2022-10-18T22:40:16.956Z,6.07
2022-10-18T22:43:04.777Z,5.82
2022-10-18T22:45:51.983Z,5.22
2022-10-18T22:48:40.070Z,5.10
2022-10-18T22:51:28.008Z,5.32
2022-10-18T22:54:15.445Z,5.15
2022-10-18T22:57:03.085Z,5.30
2022-10-18T22:59:50.530Z,6.78
2022-10-18T23:02:38.358Z,5.78
2022-10-18T23:05:25.596Z,5.70
2022-10-18T23:08:14.374Z,5.43
2022-10-18T23:11:01.758Z,4.75
2022-10-18T23:13:49.591Z,5.78
2022-10-18T23:16:37.042Z,6.15
2022-10-18T23:19:24.900Z,4.35
2022-10-18T23:22:14.867Z,4.68
2022-10-18T23:25:02.510Z,5.38
2022-10-18T23:27:50.164Z,5.40
2022-10-18T23:30:38.851Z,4.95
2022-10-18T23:33:26.252Z,5.38
2022-10-18T23:36:14.200Z,5.18
2022-10-18T23:39:02.264Z,5.22
2022-10-18T23:41:49.669Z,5.00
2022-10-18T23:44:37.485Z,4.65
2022-10-18T23:47:24.688Z,5.15
2022-10-18T23:50:12.355Z,7.30
2022-10-18T23:52:59.538Z,5.20
2022-10-18T23:55:54.374Z,6.25
2022-10-18T23:58:42.111Z,4.70
